Time;durP1;ratioP1;P1;durP2;ratioP2;P2;SDS_P1;SDS_P2;PMS_P1;PMS_P2;Temp;Humidity;BMP_temperature;BMP_pressure;BME280_temperature;BME280_humidity;BME280_pressure;Samples;Min_cycle;Max_cycle;Signal;HPM_P1;HPM_P2
2021/07/21 00:00:31;;;;;;;;;;;;;;;;;;2144619;66;1113;-70
2021/07/21 00:02:56;;;;;;;;;;;;;;;;;;2144935;66;1202;-71
2021/07/21 00:05:22;;;;;;;;;;;;;;;;;;2146646;66;1926;-71
2021/07/21 00:07:48;;;;;;;;;;;;;;;;;;2145762;59;1220;-70
2021/07/21 00:10:14;;;;;;;;;;;;;;;;;;2145388;66;1204;-71
2021/07/21 00:15:25;;;;;;;;;;;;;;;;;;2147106;59;1309;-71
2021/07/21 00:17:58;;;;;;;;;;;;;;;;;;2146463;66;1207;-71
2021/07/21 00:20:24;;;;;;;;;;;;;;;;;;2144666;66;1148;-70
2021/07/21 00:22:49;;;;;;;;;;;;;;;;;;2145769;66;1373;-71
2021/07/21 00:25:15;;;;;;;;;;;;;;;;;;2144739;66;1984;-72
2021/07/21 00:27:41;;;;;;;;;;;;;;;;;;2147166;66;1167;-71
2021/07/21 00:30:08;;;;;;;;;;;;;;;;;;2145310;66;1168;-71
2021/07/21 00:32:34;;;;;;;;;;;;;;;;;;2145070;66;1166;-71
2021/07/21 00:34:59;;;;;;;;;;;;;;;;;;2145156;66;1171;-72
2021/07/21 00:37:24;;;;;;;;;;;;;;;;;;2146730;66;1244;-70
2021/07/21 00:39:49;;;;;;;;;;;;;;;;;;2146483;66;1199;-72
2021/07/21 00:42:14;;;;;;;;;;;;;;;;;;2146262;66;1210;-71
2021/07/21 00:44:40;;;;;;;;;;;;;;;;;;2146769;66;1062;-68
2021/07/21 00:47:05;;;;;;;;;;;;;;;;;;2146131;66;1974;-71
2021/07/21 00:49:31;;;;;;;;;;;;;;;;;;2145895;66;1360;-70
2021/07/21 00:51:56;;;;;;;;;;;;;;;;;;2146580;59;998;-68
2021/07/21 00:54:21;;;;;;;;;;;;;;;;;;2146335;66;1199;-71
2021/07/21 00:56:47;;;;;;;;;;;;;;;;;;2146632;66;1715;-70
2021/07/21 00:59:12;;;;;;;;;;;;;;;;;;2146219;59;1254;-72
2021/07/21 01:01:37;;;;;;;;;;;;;;;;;;2145777;66;1354;-71
2021/07/21 01:04:03;;;;;;;;;;;;;;;;;;2143304;66;1279;-68
2021/07/21 01:06:28;;;;;;;;;;;;;;;;;;2147041;58;1929;-72
2021/07/21 01:08:53;;;;;;;;;;;;;;;;;;2145769;66;1176;-71
2021/07/21 01:11:39;;;;;;;;;;;;;;;;;;2145269;66;1262;-73
2021/07/21 01:14:16;;;;;;;;;;;;;;;;;;2144361;66;1514;-71
2021/07/21 01:16:45;;;;;;;;;;;;;;;;;;2144553;66;1221;-71
2021/07/21 01:19:19;;;;;;;;;;;;;;;;;;2146171;66;1238;-72
2021/07/21 01:22:03;;;;;;;;;;;;;;;;;;2144754;66;1186;-72
2021/07/21 01:24:47;;;;;;;;;;;;;;;;;;2146403;59;1191;-72
2021/07/21 01:27:12;;;;;;;;;;;;;;;;;;2145972;66;1933;-72
2021/07/21 01:29:38;;;;;;;;;;;;;;;;;;2146193;66;1217;-69
2021/07/21 01:32:04;;;;;;;;;;;;;;;;;;2145963;66;1234;-72
2021/07/21 01:34:31;;;;;;;;;;;;;;;;;;2145150;66;1277;-70
2021/07/21 01:36:57;;;;;;;;;;;;;;;;;;2146980;66;1253;-71
2021/07/21 01:39:26;;;;;;;;;;;;;;;;;;2146481;66;1200;-70
2021/07/21 01:41:54;;;;;;;;;;;;;;;;;;2146035;66;1153;-71
2021/07/21 01:44:21;;;;;;;;;;;;;;;;;;2142576;66;1401;-71
2021/07/21 01:46:50;;;;;;;;;;;;;;;;;;2146191;66;1970;-70
2021/07/21 01:49:15;;;;;;;;;;;;;;;;;;2144726;66;1168;-71
2021/07/21 01:51:42;;;;;;;;;;;;;;;;;;2144801;66;1211;-70
2021/07/21 01:54:09;;;;;;;;;;;;;;;;;;2145772;60;1120;-71
2021/07/21 01:56:35;;;;;;;;;;;;;;;;;;2146126;66;1197;-69
2021/07/21 01:59:01;;;;;;;;;;;;;;;;;;2146046;66;1152;-69
2021/07/21 02:01:28;;;;;;;;;;;;;;;;;;2145349;66;1142;-69
2021/07/21 02:03:55;;;;;;;;;;;;;;;;;;2146920;66;1932;-69
2021/07/21 02:06:20;;;;;;;;;;;;;;;;;;2146052;59;2234;-70
2021/07/21 02:08:46;;;;;;;;;;;;;;;;;;2145334;59;1185;-71
2021/07/21 02:11:11;;;;;;;;;;;;;;;;;;2145974;59;1117;-69
2021/07/21 02:13:36;;;;;;;;;;;;;;;;;;2146524;66;1218;-72
2021/07/21 02:16:02;;;;;;;;;;;;;;;;;;2145851;58;1266;-69
2021/07/21 02:18:28;;;;;;;;;;;;;;;;;;2146804;66;1181;-71
2021/07/21 02:20:53;;;;;;;;;;;;;;;;;;2147115;66;1249;-72
2021/07/21 02:23:20;;;;;;;;;;;;;;;;;;2146327;59;1288;-71
2021/07/21 02:25:46;;;;;;;;;;;;;;;;;;2146682;66;1919;-71
2021/07/21 02:28:12;;;;;;;;;;;;;;;;;;2146614;59;1078;-70
2021/07/21 02:30:38;;;;;;;;;;;;;;;;;;2146812;66;1140;-69
2021/07/21 02:33:26;;;;;;;;;;;;;;;;;;2146852;66;1177;-72
2021/07/21 02:35:51;;;;;;;;;;;;;;;;;;2135317;66;1268;-72
2021/07/21 02:38:17;;;;;;;;;;;;;;;;;;2146869;66;1197;-71
2021/07/21 02:40:42;;;;;;;;;;;;;;;;;;2146715;59;1224;-70
2021/07/21 02:43:07;;;;;;;;;;;;;;;;;;2147078;66;1156;-71
2021/07/21 02:45:35;;;;;;;;;;;;;;;;;;2145918;58;1923;-69
2021/07/21 02:48:00;;;;;;;;;;;;;;;;;;2144634;66;1095;-69
2021/07/21 02:50:26;;;;;;;;;;;;;;;;;;2146250;66;1545;-72
2021/07/21 02:53:02;;;;;;;;;;;;;;;;;;2145105;66;1225;-72
2021/07/21 02:55:34;;;;;;;;;;;;;;;;;;2146665;66;1153;-71
2021/07/21 02:58:09;;;;;;;;;;;;;;;;;;2143920;66;1052;-70
2021/07/21 03:00:34;;;;;;;;;;;;;;;;;;2146749;66;1199;-72
2021/07/21 03:03:00;;;;;;;;;;;;;;;;;;2145410;66;1255;-70
2021/07/21 03:05:26;;;;;;;;;;;;;;;;;;2146772;66;1909;-70
2021/07/21 03:07:54;;;;;;;;;;;;;;;;;;2145223;58;1268;-71
2021/07/21 03:10:20;;;;;;;;;;;;;;;;;;2145329;66;1157;-70
2021/07/21 03:12:47;;;;;;;;;;;;;;;;;;2145755;66;1044;-68
2021/07/21 03:15:13;;;;;;;;;;;;;;;;;;2146624;59;1272;-71
2021/07/21 03:17:39;;;;;;;;;;;;;;;;;;2146327;66;1177;-71
2021/07/21 03:20:05;;;;;;;;;;;;;;;;;;2146108;66;1175;-71
2021/07/21 03:22:31;;;;;;;;;;;;;;;;;;2146312;59;1160;-71
2021/07/21 03:24:56;;;;;;;;;;;;;;;;;;2146259;66;1176;-71
2021/07/21 03:27:22;;;;;;;;;;;;;;;;;;2145567;66;1940;-70
2021/07/21 03:29:49;;;;;;;;;;;;;;;;;;2146112;66;1155;-70
2021/07/21 03:32:17;;;;;;;;;;;;;;;;;;2145660;66;1143;-72
2021/07/21 03:34:43;;;;;;;;;;;;;;;;;;2144687;66;1164;-70
2021/07/21 03:37:08;;;;;;;;;;;;;;;;;;2143146;66;1365;-70
2021/07/21 03:39:35;;;;;;;;;;;;;;;;;;2146189;66;1243;-71
2021/07/21 03:42:00;;;;;;;;;;;;;;;;;;2146550;66;1837;-69
2021/07/21 03:44:25;;;;;;;;;;;;;;;;;;2146419;66;1138;-71
2021/07/21 03:46:52;;;;;;;;;;;;;;;;;;2146244;66;1984;-69
2021/07/21 03:49:18;;;;;;;;;;;;;;;;;;2144388;66;1265;-71
2021/07/21 03:51:44;;;;;;;;;;;;;;;;;;2145661;66;1156;-71
2021/07/21 03:54:10;;;;;;;;;;;;;;;;;;2144849;66;1116;-69
2021/07/21 03:56:37;;;;;;;;;;;;;;;;;;2142812;66;2042;-72
2021/07/21 03:59:04;;;;;;;;;;;;;;;;;;2145062;66;1139;-70
2021/07/21 04:01:29;;;;;;;;;;;;;;;;;;2146748;66;1339;-69
2021/07/21 04:03:55;;;;;;;;;;;;;;;;;;2146183;66;1214;-70
2021/07/21 04:06:21;;;;;;;;;;;;;;;;;;2147355;58;1986;-69
2021/07/21 04:08:48;;;;;;;;;;;;;;;;;;2145555;66;1167;-71
2021/07/21 04:11:13;;;;;;;;;;;;;;;;;;2145266;66;1520;-71
2021/07/21 04:13:42;;;;;;;;;;;;;;;;;;2146516;66;1166;-71
2021/07/21 04:16:08;;;;;;;;;;;;;;;;;;2146159;59;1317;-70
2021/07/21 04:18:35;;;;;;;;;;;;;;;;;;2146500;66;1186;-72
2021/07/21 04:21:00;;;;;;;;;;;;;;;;;;2147110;66;1222;-71
2021/07/21 04:23:26;;;;;;;;;;;;;;;;;;2147035;66;1187;-70
2021/07/21 04:25:52;;;;;;;;;;;;;;;;;;2146564;66;1925;-71
2021/07/21 04:28:17;;;;;;;;;;;;;;;;;;2147086;66;1246;-71
2021/07/21 04:30:42;;;;;;;;;;;;;;;;;;2146671;66;1151;-71
2021/07/21 04:33:08;;;;;;;;;;;;;;;;;;2147123;66;1194;-73
2021/07/21 04:35:33;;;;;;;;;;;;;;;;;;2146492;66;1257;-73
2021/07/21 04:37:58;;;;;;;;;;;;;;;;;;2146906;66;1275;-71
2021/07/21 04:40:24;;;;;;;;;;;;;;;;;;2146047;66;1067;-73
2021/07/21 04:42:49;;;;;;;;;;;;;;;;;;2147125;66;1109;-73
2021/07/21 04:45:14;;;;;;;;;;;;;;;;;;2145641;59;1892;-72
2021/07/21 04:47:40;;;;;;;;;;;;;;;;;;2146354;66;1277;-73
2021/07/21 04:50:10;;;;;;;;;;;;;;;;;;2144657;66;1262;-71
2021/07/21 04:52:35;;;;;;;;;;;;;;;;;;2146871;66;1167;-71
2021/07/21 04:55:01;;;;;;;;;;;;;;;;;;2147210;66;1175;-72
2021/07/21 04:57:26;;;;;;;;;;;;;;;;;;2146647;66;1215;-71
2021/07/21 04:59:51;;;;;;;;;;;;;;;;;;2147100;66;1157;-69
2021/07/21 05:02:17;;;;;;;;;;;;;;;;;;2146692;66;1175;-71
2021/07/21 05:04:42;;;;;;;;;;;;;;;;;;2147831;66;1170;-70
2021/07/21 05:07:07;;;;;;;;;;;;;;;;;;2146425;59;1972;-69
2021/07/21 05:09:33;;;;;;;;;;;;;;;;;;2144756;66;1467;-70
2021/07/21 05:11:58;;;;;;;;;;;;;;;;;;2144659;66;1642;-69
2021/07/21 05:14:23;;;;;;;;;;;;;;;;;;2144728;66;1147;-69
2021/07/21 05:16:48;;;;;;;;;;;;;;;;;;2146713;59;1288;-70
2021/07/21 05:19:13;;;;;;;;;;;;;;;;;;2146427;66;1242;-70
2021/07/21 05:21:38;;;;;;;;;;;;;;;;;;2146387;66;1020;-71
2021/07/21 05:24:04;;;;;;;;;;;;;;;;;;2146587;66;1229;-71
2021/07/21 05:26:29;;;;;;;;;;;;;;;;;;2145760;66;1929;-71
2021/07/21 05:28:55;;;;;;;;;;;;;;;;;;2147053;66;1202;-70
2021/07/21 05:31:20;;;;;;;;;;;;;;;;;;2145288;66;1206;-72
2021/07/21 05:33:45;;;;;;;;;;;;;;;;;;2146188;66;1082;-70
2021/07/21 05:36:11;;;;;;;;;;;;;;;;;;2144539;66;1292;-73
2021/07/21 05:38:36;;;;;;;;;;;;;;;;;;2146601;66;1150;-70
2021/07/21 05:41:01;;;;;;;;;;;;;;;;;;2146510;66;1192;-68
2021/07/21 05:43:29;;;;;;;;;;;;;;;;;;2146052;59;1167;-71
2021/07/21 05:45:54;;;;;;;;;;;;;;;;;;2146705;66;1929;-68
2021/07/21 05:48:19;;;;;;;;;;;;;;;;;;2143441;66;1213;-71
2021/07/21 05:50:44;;;;;;;;;;;;;;;;;;2145306;66;1279;-70
2021/07/21 05:53:09;;;;;;;;;;;;;;;;;;2145193;66;1594;-73
2021/07/21 05:55:35;;;;;;;;;;;;;;;;;;2145892;66;1213;-73
2021/07/21 05:58:00;;;;;;;;;;;;;;;;;;2146652;66;1147;-70
2021/07/21 06:00:25;;;;;;;;;;;;;;;;;;2143887;59;2295;-70
2021/07/21 06:02:50;;;;;;;;;;;;;;;;;;2145254;66;1150;-74
2021/07/21 06:05:16;;;;;;;;;;;;;;;;;;2145554;66;1925;-71
2021/07/21 06:07:41;;;;;;;;;;;;;;;;;;2145214;59;1385;-70
2021/07/21 06:10:06;;;;;;;;;;;;;;;;;;2145040;66;1106;-74
2021/07/21 06:12:32;;;;;;;;;;;;;;;;;;2146345;66;1140;-71
2021/07/21 06:14:58;;;;;;;;;;;;;;;;;;2144560;59;2406;-73
2021/07/21 06:17:23;;;;;;;;;;;;;;;;;;2146435;66;1190;-73
2021/07/21 06:19:49;;;;;;;;;;;;;;;;;;2146079;66;1141;-70
2021/07/21 06:22:18;;;;;;;;;;;;;;;;;;2145942;66;1069;-71
2021/07/21 06:24:43;;;;;;;;;;;;;;;;;;2144829;66;1156;-69
2021/07/21 06:27:08;;;;;;;;;;;;;;;;;;2146581;66;1923;-70
2021/07/21 06:29:34;;;;;;;;;;;;;;;;;;2145841;66;1156;-71
2021/07/21 06:31:59;;;;;;;;;;;;;;;;;;2145825;66;1148;-70
2021/07/21 06:34:24;;;;;;;;;;;;;;;;;;2145019;59;1171;-71
2021/07/21 06:36:49;;;;;;;;;;;;;;;;;;2145480;66;1240;-71
2021/07/21 06:39:15;;;;;;;;;;;;;;;;;;2146187;66;1206;-70
2021/07/21 06:41:40;;;;;;;;;;;;;;;;;;2145431;66;1219;-71
2021/07/21 06:44:05;;;;;;;;;;;;;;;;;;2142068;66;1773;-71
2021/07/21 06:46:30;;;;;;;;;;;;;;;;;;2145144;66;1931;-70
2021/07/21 06:48:56;;;;;;;;;;;;;;;;;;2145408;66;1203;-69
2021/07/21 06:51:22;;;;;;;;;;;;;;;;;;2144317;66;1240;-68
2021/07/21 06:53:47;;;;;;;;;;;;;;;;;;2145829;66;1157;-71
2021/07/21 06:56:13;;;;;;;;;;;;;;;;;;2145618;66;1290;-71
2021/07/21 06:58:38;;;;;;;;;;;;;;;;;;2144183;66;1170;-71
2021/07/21 07:01:03;;;;;;;;;;;;;;;;;;2145128;66;1088;-71
2021/07/21 07:03:28;;;;;;;;;;;;;;;;;;2146485;66;1297;-71
2021/07/21 07:05:54;;;;;;;;;;;;;;;;;;2144027;59;1970;-69
2021/07/21 07:08:19;;;;;;;;;;;;;;;;;;2145921;66;1171;-70
2021/07/21 07:10:45;;;;;;;;;;;;;;;;;;2144981;66;1228;-73
2021/07/21 07:13:10;;;;;;;;;;;;;;;;;;2145852;66;1241;-69
2021/07/21 07:15:35;;;;;;;;;;;;;;;;;;2146188;59;1302;-70
2021/07/21 07:18:00;;;;;;;;;;;;;;;;;;2146164;66;1147;-71
2021/07/21 07:20:25;;;;;;;;;;;;;;;;;;2146247;59;1151;-70
2021/07/21 07:22:51;;;;;;;;;;;;;;;;;;2146386;66;1154;-71
2021/07/21 07:25:16;;;;;;;;;;;;;;;;;;2145757;66;1991;-70
2021/07/21 07:27:41;;;;;;;;;;;;;;;;;;2146534;66;1186;-71
2021/07/21 07:30:07;;;;;;;;;;;;;;;;;;2145601;66;1163;-72
2021/07/21 07:32:32;;;;;;;;;;;;;;;;;;2146917;66;1132;-71
2021/07/21 07:34:57;;;;;;;;;;;;;;;;;;2145428;66;1165;-69
2021/07/21 07:37:23;;;;;;;;;;;;;;;;;;2145598;66;1282;-69
2021/07/21 07:39:48;;;;;;;;;;;;;;;;;;2147144;66;1222;-69
2021/07/21 07:42:14;;;;;;;;;;;;;;;;;;2145510;66;1221;-70
2021/07/21 07:44:39;;;;;;;;;;;;;;;;;;2146675;66;1226;-69
2021/07/21 07:47:05;;;;;;;;;;;;;;;;;;2145460;66;1999;-70
2021/07/21 07:49:30;;;;;;;;;;;;;;;;;;2144753;66;1250;-71
2021/07/21 07:51:55;;;;;;;;;;;;;;;;;;2144750;66;1489;-70
2021/07/21 07:54:21;;;;;;;;;;;;;;;;;;2146464;66;1241;-71
2021/07/21 07:56:47;;;;;;;;;;;;;;;;;;2146668;66;1269;-73
2021/07/21 07:59:12;;;;;;;;;;;;;;;;;;2146010;66;1049;-72
2021/07/21 08:01:38;;;;;;;;;;;;;;;;;;2146379;66;1223;-71
2021/07/21 08:04:03;;;;;;;;;;;;;;;;;;2145844;66;1321;-68
2021/07/21 08:06:28;;;;;;;;;;;;;;;;;;2145020;58;2262;-71
2021/07/21 08:08:53;;;;;;;;;;;;;;;;;;2144576;58;1342;-71
2021/07/21 08:11:19;;;;;;;;;;;;;;;;;;2146099;59;1201;-69
2021/07/21 08:13:44;;;;;;;;;;;;;;;;;;2146617;66;1352;-71
2021/07/21 08:16:10;;;;;;;;;;;;;;;;;;2146101;59;1226;-70
2021/07/21 08:18:35;;;;;;;;;;;;;;;;;;2145434;66;1269;-70
2021/07/21 08:21:01;;;;;;;;;;;;;;;;;;2147694;66;1253;-70
2021/07/21 08:23:26;;;;;;;;;;;;;;;;;;2146827;59;1243;-70
2021/07/21 08:25:51;;;;;;;;;;;;;;;;;;2146833;66;1933;-70
2021/07/21 08:28:17;;;;;;;;;;;;;;;;;;2145253;66;1155;-70
2021/07/21 08:30:43;;;;;;;;;;;;;;;;;;2146545;66;1083;-69
2021/07/21 08:33:08;;;;;;;;;;;;;;;;;;2145600;66;1177;-71
2021/07/21 08:35:33;;;;;;;;;;;;;;;;;;2146220;66;1110;-70
2021/07/21 08:37:59;;;;;;;;;;;;;;;;;;2146407;66;1276;-71
2021/07/21 08:40:25;;;;;;;;;;;;;;;;;;2146615;66;1091;-71
2021/07/21 08:42:51;;;;;;;;;;;;;;;;;;2146199;59;1470;-70
2021/07/21 08:45:16;;;;;;;;;;;;;;;;;;2145535;66;1181;-69
2021/07/21 08:47:41;;;;;;;;;;;;;;;;;;2145112;59;1937;-73
2021/07/21 08:50:08;;;;;;;;;;;;;;;;;;2145508;66;1039;-71
2021/07/21 08:52:34;;;;;;;;;;;;;;;;;;2146779;66;1205;-72
2021/07/21 08:55:00;;;;;;;;;;;;;;;;;;2146742;66;1085;-70
2021/07/21 08:57:30;;;;;;;;;;;;;;;;;;2142943;66;1544;-71
2021/07/21 08:59:57;;;;;;;;;;;;;;;;;;2146743;66;1142;-72
2021/07/21 09:02:22;;;;;;;;;;;;;;;;;;2145970;66;1148;-69
2021/07/21 09:04:47;;;;;;;;;;;;;;;;;;2146105;66;1379;-71
2021/07/21 09:07:13;;;;;;;;;;;;;;;;;;2145837;59;1935;-71
2021/07/21 09:09:38;;;;;;;;;;;;;;;;;;2144740;66;1240;-72
2021/07/21 09:12:06;;;;;;;;;;;;;;;;;;2146098;66;1523;-70
2021/07/21 09:14:31;;;;;;;;;;;;;;;;;;2145910;66;1198;-71
2021/07/21 09:17:08;;;;;;;;;;;;;;;;;;2146160;59;1354;-70
2021/07/21 09:19:35;;;;;;;;;;;;;;;;;;2146321;66;1152;-70
2021/07/21 09:22:14;;;;;;;;;;;;;;;;;;2145918;66;1080;-71
2021/07/21 09:24:39;;;;;;;;;;;;;;;;;;2146297;66;1178;-71
2021/07/21 09:27:05;;;;;;;;;;;;;;;;;;2145584;66;1912;-73
2021/07/21 09:29:30;;;;;;;;;;;;;;;;;;2146456;66;1157;-71
2021/07/21 09:31:58;;;;;;;;;;;;;;;;;;2146059;66;1127;-70
2021/07/21 09:34:25;;;;;;;;;;;;;;;;;;2145139;66;1159;-70
2021/07/21 09:37:08;;;;;;;;;;;;;;;;;;2146284;66;1200;-70
2021/07/21 09:39:37;;;;;;;;;;;;;;;;;;2144559;59;1374;-71
2021/07/21 09:42:03;;;;;;;;;;;;;;;;;;2146206;59;1372;-72
2021/07/21 09:44:36;;;;;;;;;;;;;;;;;;2145097;66;1164;-71
2021/07/21 09:47:15;;;;;;;;;;;;;;;;;;2146082;66;1916;-71
2021/07/21 09:49:41;;;;;;;;;;;;;;;;;;2144574;66;1379;-71
2021/07/21 09:52:18;;;;;;;;;;;;;;;;;;2145569;66;1857;-71
2021/07/21 09:55:02;;;;;;;;;;;;;;;;;;2147039;66;1251;-69
2021/07/21 09:57:27;;;;;;;;;;;;;;;;;;2145567;66;1253;-69
2021/07/21 09:59:57;;;;;;;;;;;;;;;;;;2146686;66;1761;-71
2021/07/21 10:02:25;;;;;;;;;;;;;;;;;;2146000;66;1233;-69
2021/07/21 10:04:50;;;;;;;;;;;;;;;;;;2147171;66;1211;-71
2021/07/21 10:10:15;;;;;;;;;;;;;;;;;;2145738;59;1047;-71
2021/07/21 10:12:40;;;;;;;;;;;;;;;;;;2145783;66;1109;-69
2021/07/21 10:15:06;;;;;;;;;;;;;;;;;;2144527;66;1278;-72
2021/07/21 10:17:37;;;;;;;;;;;;;;;;;;2144896;66;1245;-69
2021/07/21 10:20:03;;;;;;;;;;;;;;;;;;2144042;66;1126;-68
2021/07/21 10:22:28;;;;;;;;;;;;;;;;;;2144783;66;2036;-70
2021/07/21 10:24:55;;;;;;;;;;;;;;;;;;2143166;66;1063;-72
2021/07/21 10:27:21;;;;;;;;;;;;;;;;;;2144739;66;1222;-68
2021/07/21 10:29:46;;;;;;;;;;;;;;;;;;2143481;66;1157;-70
2021/07/21 10:32:14;;;;;;;;;;;;;;;;;;2144404;66;1194;-69
2021/07/21 10:34:41;;;;;;;;;;;;;;;;;;2146092;59;4131;-71
2021/07/21 10:37:07;;;;;;;;;;;;;;;;;;2142304;66;1932;-70
2021/07/21 10:39:36;;;;;;;;;;;;;;;;;;2145445;66;1159;-68
2021/07/21 10:42:19;;;;;;;;;;;;;;;;;;2144317;66;1134;-68
2021/07/21 10:44:54;;;;;;;;;;;;;;;;;;2144870;66;1146;-69
2021/07/21 10:47:24;;;;;;;;;;;;;;;;;;2144770;58;1407;-68
2021/07/21 10:49:54;;;;;;;;;;;;;;;;;;2145523;66;1203;-68
2021/07/21 10:55:01;;;;;;;;;;;;;;;;;;2143974;59;1166;-67
2021/07/21 11:00:16;;;;;;;;;;;;;;;;;;2142760;58;1125;-68
2021/07/21 11:02:45;;;;;;;;;;;;;;;;;;2142870;66;1161;-68
2021/07/21 11:05:30;;;;;;;;;;;;;;;;;;2144244;66;1206;-69
2021/07/21 11:07:56;;;;;;;;;;;;;;;;;;2142685;66;1165;-68
2021/07/21 11:10:36;;;;;;;;;;;;;;;;;;2143899;66;1314;-69
2021/07/21 11:13:02;;;;;;;;;;;;;;;;;;2142367;66;1023;-68
2021/07/21 11:15:35;;;;;;;;;;;;;;;;;;2143265;58;1923;-70
2021/07/21 11:18:18;;;;;;;;;;;;;;;;;;2144350;66;1065;-69
2021/07/21 11:21:02;;;;;;;;;;;;;;;;;;2140478;67;1069;-69
2021/07/21 11:23:44;;;;;;;;;;;;;;;;;;2140550;67;1195;-69
2021/07/21 11:26:28;;;;;;;;;;;;;;;;;;2141721;67;1239;-70
2021/07/21 11:28:54;;;;;;;;;;;;;;;;;;2138065;67;1200;-68
2021/07/21 11:31:39;;;;;;;;;;;;;;;;;;2139494;67;1160;-69
2021/07/21 11:34:11;;;;;;;;;;;;;;;;;;2138631;66;1960;-69
2021/07/21 11:36:40;;;;;;;;;;;;;;;;;;2138573;67;1981;-69
2021/07/21 11:39:06;;;;;;;;;;;;;;;;;;2138555;67;1177;-68
2021/07/21 11:41:54;;;;;;;;;;;;;;;;;;2137920;66;1352;-68
2021/07/21 11:44:27;;;;;;;;;;;;;;;;;;2138255;67;1146;-68
2021/07/21 11:46:53;;;;;;;;;;;;;;;;;;2138344;67;1336;-69
2021/07/21 11:49:19;;;;;;;;;;;;;;;;;;2139804;59;1879;-70
2021/07/21 11:51:47;;;;;;;;;;;;;;;;;;2138346;67;1265;-69
2021/07/21 11:54:17;;;;;;;;;;;;;;;;;;2138289;67;1214;-70
2021/07/21 11:56:43;;;;;;;;;;;;;;;;;;2138148;67;2002;-72
2021/07/21 11:59:08;;;;;;;;;;;;;;;;;;2138042;59;1149;-71
2021/07/21 12:01:33;;;;;;;;;;;;;;;;;;2138694;66;1322;-71
2021/07/21 12:03:58;;;;;;;;;;;;;;;;;;2138822;67;1579;-71
2021/07/21 12:06:24;;;;;;;;;;;;;;;;;;2138891;66;1280;-70
2021/07/21 12:08:50;;;;;;;;;;;;;;;;;;2139138;59;1158;-70
2021/07/21 12:11:17;;;;;;;;;;;;;;;;;;2138970;66;1250;-69
2021/07/21 12:13:42;;;;;;;;;;;;;;;;;;2140143;66;1766;-69
2021/07/21 12:16:08;;;;;;;;;;;;;;;;;;2146835;59;1994;-69
2021/07/21 12:18:33;;;;;;;;;;;;;;;;;;2152229;66;1186;-68
2021/07/21 12:21:05;;;;;;;;;;;;;;;;;;2142658;66;1493;-68
2021/07/21 12:23:31;;;;;;;;;;;;;;;;;;2138648;66;1158;-68
2021/07/21 12:26:02;;;;;;;;;;;;;;;;;;2140368;67;1201;-69
2021/07/21 12:28:28;;;;;;;;;;;;;;;;;;2138427;67;1021;-70
2021/07/21 12:30:57;;;;;;;;;;;;;;;;;;2138851;67;1142;-69
2021/07/21 12:33:22;;;;;;;;;;;;;;;;;;2141314;66;1207;-70
2021/07/21 12:35:47;;;;;;;;;;;;;;;;;;2140185;66;1978;-69
2021/07/21 12:38:12;;;;;;;;;;;;;;;;;;2138713;67;1178;-69
2021/07/21 12:40:37;;;;;;;;;;;;;;;;;;2142442;66;1130;-70
2021/07/21 12:43:03;;;;;;;;;;;;;;;;;;2146786;66;1668;-69
2021/07/21 12:45:33;;;;;;;;;;;;;;;;;;2138724;67;1272;-72
2021/07/21 12:47:59;;;;;;;;;;;;;;;;;;2141058;67;1238;-70
2021/07/21 12:50:38;;;;;;;;;;;;;;;;;;2140999;67;1260;-70
2021/07/21 12:53:08;;;;;;;;;;;;;;;;;;2139109;67;1174;-68
2021/07/21 12:55:41;;;;;;;;;;;;;;;;;;2138490;67;1937;-71
2021/07/21 12:58:11;;;;;;;;;;;;;;;;;;2137972;67;1185;-70
2021/07/21 13:00:41;;;;;;;;;;;;;;;;;;2146483;66;1218;-69
2021/07/21 13:03:11;;;;;;;;;;;;;;;;;;2142383;66;1186;-71
2021/07/21 13:05:41;;;;;;;;;;;;;;;;;;2138003;67;1285;-69
2021/07/21 13:08:06;;;;;;;;;;;;;;;;;;2138134;67;1185;-71
2021/07/21 13:10:32;;;;;;;;;;;;;;;;;;2141364;66;1115;-71
2021/07/21 13:12:58;;;;;;;;;;;;;;;;;;2138979;66;1038;-70
2021/07/21 13:15:41;;;;;;;;;;;;;;;;;;2148799;66;1935;-70
2021/07/21 13:18:06;;;;;;;;;;;;;;;;;;2142645;66;1507;-72
2021/07/21 13:20:33;;;;;;;;;;;;;;;;;;2138475;67;1233;-71
2021/07/21 13:23:11;;;;;;;;;;;;;;;;;;2142027;66;1439;-72
2021/07/21 13:25:37;;;;;;;;;;;;;;;;;;2142266;66;1226;-71
2021/07/21 13:28:22;;;;;;;;;;;;;;;;;;2140490;66;2319;-70
2021/07/21 13:30:47;;;;;;;;;;;;;;;;;;2146051;66;1190;-71
2021/07/21 13:33:12;;;;;;;;;;;;;;;;;;2138137;67;1215;-70
2021/07/21 13:35:38;;;;;;;;;;;;;;;;;;2147500;66;1941;-71
2021/07/21 13:38:03;;;;;;;;;;;;;;;;;;2142118;66;1723;-72
2021/07/21 13:40:28;;;;;;;;;;;;;;;;;;2138160;67;1134;-71
2021/07/21 13:43:06;;;;;;;;;;;;;;;;;;2141737;66;1054;-70
2021/07/21 13:45:32;;;;;;;;;;;;;;;;;;2143566;66;1263;-72
2021/07/21 13:47:58;;;;;;;;;;;;;;;;;;2147130;66;1567;-71
2021/07/21 13:50:24;;;;;;;;;;;;;;;;;;2140001;67;1309;-70
2021/07/21 13:53:02;;;;;;;;;;;;;;;;;;2137858;67;1235;-70
2021/07/21 13:55:27;;;;;;;;;;;;;;;;;;2137711;67;1916;-72
2021/07/21 13:57:53;;;;;;;;;;;;;;;;;;2136601;66;1221;-70
2021/07/21 14:00:18;;;;;;;;;;;;;;;;;;2139198;67;1258;-69
2021/07/21 14:02:43;;;;;;;;;;;;;;;;;;2138708;67;1192;-70
2021/07/21 14:05:08;;;;;;;;;;;;;;;;;;2137239;67;1084;-71
2021/07/21 14:07:33;;;;;;;;;;;;;;;;;;2139624;66;1277;-70
2021/07/21 14:09:59;;;;;;;;;;;;;;;;;;2139980;66;1316;-72
2021/07/21 14:12:24;;;;;;;;;;;;;;;;;;2141670;66;1316;-70
2021/07/21 14:14:49;;;;;;;;;;;;;;;;;;2137858;67;1162;-72
2021/07/21 14:17:15;;;;;;;;;;;;;;;;;;2139851;59;1928;-71
2021/07/21 14:19:40;;;;;;;;;;;;;;;;;;2137857;67;1285;-70
2021/07/21 14:22:05;;;;;;;;;;;;;;;;;;2138762;67;1166;-71
2021/07/21 14:24:31;;;;;;;;;;;;;;;;;;2138597;66;1166;-72
2021/07/21 14:26:58;;;;;;;;;;;;;;;;;;2137775;66;1240;-72
2021/07/21 14:29:23;;;;;;;;;;;;;;;;;;2138604;67;1352;-70
2021/07/21 14:31:48;;;;;;;;;;;;;;;;;;2135551;67;1065;-70
2021/07/21 14:34:15;;;;;;;;;;;;;;;;;;2137274;66;1154;-70
2021/07/21 14:36:42;;;;;;;;;;;;;;;;;;2139126;67;1996;-69
2021/07/21 14:39:07;;;;;;;;;;;;;;;;;;2137959;67;1201;-71
2021/07/21 14:41:32;;;;;;;;;;;;;;;;;;2138299;59;1142;-72
2021/07/21 14:43:57;;;;;;;;;;;;;;;;;;2137865;66;1178;-70
2021/07/21 14:46:23;;;;;;;;;;;;;;;;;;2137736;59;1461;-70
2021/07/21 14:48:48;;;;;;;;;;;;;;;;;;2138093;67;1208;-70
2021/07/21 14:51:14;;;;;;;;;;;;;;;;;;2137980;67;1901;-68
2021/07/21 14:53:39;;;;;;;;;;;;;;;;;;2138128;67;1203;-71
2021/07/21 14:56:04;;;;;;;;;;;;;;;;;;2138039;67;1963;-69
2021/07/21 14:58:29;;;;;;;;;;;;;;;;;;2138110;67;1254;-72
2021/07/21 15:00:55;;;;;;;;;;;;;;;;;;2137631;67;1291;-72
2021/07/21 15:03:20;;;;;;;;;;;;;;;;;;2141844;66;1051;-68
2021/07/21 15:05:45;;;;;;;;;;;;;;;;;;2138795;67;1154;-70
2021/07/21 15:08:11;;;;;;;;;;;;;;;;;;2139115;67;1174;-69
2021/07/21 15:10:37;;;;;;;;;;;;;;;;;;2141815;66;1381;-69
2021/07/21 15:13:03;;;;;;;;;;;;;;;;;;2140005;66;1648;-68
2021/07/21 15:15:28;;;;;;;;;;;;;;;;;;2138217;59;1933;-68
2021/07/21 15:17:53;;;;;;;;;;;;;;;;;;2138791;67;1278;-69
2021/07/21 15:20:19;;;;;;;;;;;;;;;;;;2138634;67;1143;-69
2021/07/21 15:22:45;;;;;;;;;;;;;;;;;;2139835;66;1053;-68
2021/07/21 15:25:10;;;;;;;;;;;;;;;;;;2137854;67;1216;-71
2021/07/21 15:27:35;;;;;;;;;;;;;;;;;;2138941;67;1266;-72
2021/07/21 15:30:07;;;;;;;;;;;;;;;;;;2137802;67;1123;-69
2021/07/21 15:32:32;;;;;;;;;;;;;;;;;;2138823;67;1206;-72
2021/07/21 15:34:57;;;;;;;;;;;;;;;;;;2138179;67;1039;-72
2021/07/21 15:37:22;;;;;;;;;;;;;;;;;;2139000;67;1977;-71
2021/07/21 15:39:48;;;;;;;;;;;;;;;;;;2138194;67;1182;-70
2021/07/21 15:42:13;;;;;;;;;;;;;;;;;;2138606;67;1152;-66
2021/07/21 15:44:38;;;;;;;;;;;;;;;;;;2138148;67;1202;-71
2021/07/21 15:47:05;;;;;;;;;;;;;;;;;;2138749;67;1623;-69
2021/07/21 15:49:31;;;;;;;;;;;;;;;;;;2141144;67;1081;-70
2021/07/21 15:51:56;;;;;;;;;;;;;;;;;;2138934;67;1140;-71
2021/07/21 15:54:21;;;;;;;;;;;;;;;;;;2138729;67;1145;-67
2021/07/21 15:56:51;;;;;;;;;;;;;;;;;;2138704;67;1930;-69
2021/07/21 15:59:16;;;;;;;;;;;;;;;;;;2138709;67;1242;-72
2021/07/21 16:01:41;;;;;;;;;;;;;;;;;;2139109;66;1322;-69
2021/07/21 16:04:07;;;;;;;;;;;;;;;;;;2143278;66;1336;-68
2021/07/21 16:06:33;;;;;;;;;;;;;;;;;;2137790;67;1226;-70
2021/07/21 16:08:58;;;;;;;;;;;;;;;;;;2139574;66;1179;-69
2021/07/21 16:11:23;;;;;;;;;;;;;;;;;;2145045;66;1033;-71
2021/07/21 16:13:49;;;;;;;;;;;;;;;;;;2140271;66;1274;-72
2021/07/21 16:16:14;;;;;;;;;;;;;;;;;;2140201;59;1938;-70
2021/07/21 16:18:40;;;;;;;;;;;;;;;;;;2136204;59;2290;-68
2021/07/21 16:21:06;;;;;;;;;;;;;;;;;;2138535;59;1099;-69
2021/07/21 16:23:31;;;;;;;;;;;;;;;;;;2140062;67;1540;-70
2021/07/21 16:25:56;;;;;;;;;;;;;;;;;;2137922;67;1246;-69
2021/07/21 16:28:22;;;;;;;;;;;;;;;;;;2138573;66;2123;-70
2021/07/21 16:30:47;;;;;;;;;;;;;;;;;;2138876;59;2229;-69
2021/07/21 16:33:12;;;;;;;;;;;;;;;;;;2140227;67;1204;-71
2021/07/21 16:35:38;;;;;;;;;;;;;;;;;;2137995;67;1987;-70
2021/07/21 16:38:03;;;;;;;;;;;;;;;;;;2138493;67;1329;-68
2021/07/21 16:40:28;;;;;;;;;;;;;;;;;;2139402;59;1875;-69
2021/07/21 16:42:53;;;;;;;;;;;;;;;;;;2139694;59;2617;-70
2021/07/21 16:45:19;;;;;;;;;;;;;;;;;;2139650;58;1681;-71
2021/07/21 16:47:45;;;;;;;;;;;;;;;;;;2138916;59;2351;-68
2021/07/21 16:50:11;;;;;;;;;;;;;;;;;;2139011;67;1549;-70
2021/07/21 16:52:37;;;;;;;;;;;;;;;;;;2138319;59;2925;-70
2021/07/21 16:55:09;;;;;;;;;;;;;;;;;;2139730;59;1544;-70
2021/07/21 16:57:35;;;;;;;;;;;;;;;;;;2140340;59;1972;-72
2021/07/21 17:00:00;;;;;;;;;;;;;;;;;;2138533;66;1083;-72
2021/07/21 17:02:26;;;;;;;;;;;;;;;;;;2139087;59;1400;-71
2021/07/21 17:04:51;;;;;;;;;;;;;;;;;;2141667;66;1158;-71
2021/07/21 17:07:16;;;;;;;;;;;;;;;;;;2138897;67;1269;-70
2021/07/21 17:09:43;;;;;;;;;;;;;;;;;;2138789;59;1296;-70
2021/07/21 17:12:08;;;;;;;;;;;;;;;;;;2139542;66;1205;-70